sensor_id;sensor_type;location;lat;lon;timestamp;pressure;altitude;pressure_sealevel;temperature;humidity
12624;BME280;6377;42.836;23.998;2023-07-09T05:35:46;96108.03;;;18.24;100.00
12624;BME280;6377;42.836;23.998;2023-07-09T05:38:15;96154.31;;;18.38;100.00
12624;BME280;6377;42.836;23.998;2023-07-09T05:40:43;96141.97;;;18.37;100.00
12624;BME280;6377;42.836;23.998;2023-07-09T05:43:12;96146.44;;;18.50;100.00
12624;BME280;6377;42.836;23.998;2023-07-09T05:45:39;96045.31;;;17.76;100.00
12624;BME280;6377;42.836;23.998;2023-07-09T05:48:07;96128.97;;;18.40;100.00
12624;BME280;6377;42.836;23.998;2023-07-09T05:50:35;96146.63;;;18.48;100.00
12624;BME280;6377;42.836;23.998;2023-07-09T05:53:03;96109.59;;;18.38;100.00
12624;BME280;6377;42.836;23.998;2023-07-09T05:55:31;96149.16;;;18.74;100.00
12624;BME280;6377;42.836;23.998;2023-07-09T05:57:58;96074.75;;;18.45;100.00
12624;BME280;6377;42.836;23.998;2023-07-09T06:00:25;96087.19;;;18.64;100.00
12624;BME280;6377;42.836;23.998;2023-07-09T06:02:53;96115.47;;;18.85;100.00
12624;BME280;6377;42.836;23.998;2023-07-09T06:05:20;96079.31;;;18.69;100.00
12624;BME280;6377;42.836;23.998;2023-07-09T06:07:47;96159.78;;;19.12;100.00
12624;BME280;6377;42.836;23.998;2023-07-09T06:10:16;96134.56;;;19.20;100.00
12624;BME280;6377;42.836;23.998;2023-07-09T06:12:43;96090.03;;;18.94;100.00
12624;BME280;6377;42.836;23.998;2023-07-09T06:15:11;96065.22;;;18.80;100.00
12624;BME280;6377;42.836;23.998;2023-07-09T06:17:38;96085.03;;;18.97;100.00
12624;BME280;6377;42.836;23.998;2023-07-09T06:20:06;96131.03;;;19.44;100.00
12624;BME280;6377;42.836;23.998;2023-07-09T06:22:34;96070.19;;;19.01;100.00
12624;BME280;6377;42.836;23.998;2023-07-09T06:25:01;96138.72;;;19.58;100.00
12624;BME280;6377;42.836;23.998;2023-07-09T06:27:30;96132.25;;;19.66;100.00
12624;BME280;6377;42.836;23.998;2023-07-09T06:29:57;96055.72;;;19.21;100.00
12624;BME280;6377;42.836;23.998;2023-07-09T06:32:24;96024.06;;;19.11;100.00
12624;BME280;6377;42.836;23.998;2023-07-09T06:34:52;96134.56;;;19.99;100.00
12624;BME280;6377;42.836;23.998;2023-07-09T06:37:19;96063.75;;;19.64;100.00
12624;BME280;6377;42.836;23.998;2023-07-09T06:39:46;96128.56;;;20.15;100.00
12624;BME280;6377;42.836;23.998;2023-07-09T06:42:13;96135.88;;;20.26;100.00
12624;BME280;6377;42.836;23.998;2023-07-09T06:44:42;96036.09;;;19.63;100.00
12624;BME280;6377;42.836;23.998;2023-07-09T06:47:09;96140.38;;;20.44;100.00
12624;BME280;6377;42.836;23.998;2023-07-09T06:49:37;96127.81;;;20.56;100.00
12624;BME280;6377;42.836;23.998;2023-07-09T06:52:05;96107.78;;;20.52;100.00
12624;BME280;6377;42.836;23.998;2023-07-09T06:54:32;96120.63;;;20.80;100.00
12624;BME280;6377;42.836;23.998;2023-07-09T06:56:59;96120.28;;;20.88;100.00
12624;BME280;6377;42.836;23.998;2023-07-09T06:59:27;96124.50;;;20.95;100.00
12624;BME280;6377;42.836;23.998;2023-07-09T07:01:55;96125.34;;;20.96;100.00
12624;BME280;6377;42.836;23.998;2023-07-09T07:04:25;96115.63;;;20.95;100.00
12624;BME280;6377;42.836;23.998;2023-07-09T07:06:52;96133.47;;;21.19;100.00
12624;BME280;6377;42.836;23.998;2023-07-09T07:09:21;96135.22;;;21.37;100.00
12624;BME280;6377;42.836;23.998;2023-07-09T07:11:48;96133.66;;;21.41;100.00
12624;BME280;6377;42.836;23.998;2023-07-09T07:14:16;96023.72;;;20.75;100.00
12624;BME280;6377;42.836;23.998;2023-07-09T07:16:43;96129.09;;;21.53;100.00
12624;BME280;6377;42.836;23.998;2023-07-09T07:19:12;96145.03;;;21.54;100.00
12624;BME280;6377;42.836;23.998;2023-07-09T07:21:39;96033.28;;;21.05;100.00
12624;BME280;6377;42.836;23.998;2023-07-09T07:24:06;96056.72;;;21.28;100.00
12624;BME280;6377;42.836;23.998;2023-07-09T07:26:34;96131.28;;;21.79;78.83
12624;BME280;6377;42.836;23.998;2023-07-09T07:29:01;96121.88;;;22.05;89.96
12624;BME280;6377;42.836;23.998;2023-07-09T07:31:28;96111.66;;;22.18;80.50
12624;BME280;6377;42.836;23.998;2023-07-09T07:33:55;96094.59;;;22.13;81.93
12624;BME280;6377;42.836;23.998;2023-07-09T07:36:24;96125.63;;;22.44;78.22
12624;BME280;6377;42.836;23.998;2023-07-09T07:38:51;96037.91;;;21.68;80.14
12624;BME280;6377;42.836;23.998;2023-07-09T07:41:19;96119.53;;;22.48;78.98
12624;BME280;6377;42.836;23.998;2023-07-09T07:43:46;96083.84;;;22.29;78.32
12624;BME280;6377;42.836;23.998;2023-07-09T07:46:13;96059.50;;;21.96;77.73
12624;BME280;6377;42.836;23.998;2023-07-09T07:48:40;96145.56;;;22.43;77.32
12624;BME280;6377;42.836;23.998;2023-07-09T07:51:08;96107.50;;;22.39;82.36
12624;BME280;6377;42.836;23.998;2023-07-09T07:53:37;96110.13;;;22.51;81.08
12624;BME280;6377;42.836;23.998;2023-07-09T07:56:04;96081.56;;;22.21;75.41
12624;BME280;6377;42.836;23.998;2023-07-09T07:58:32;96112.97;;;22.44;79.10
12624;BME280;6377;42.836;23.998;2023-07-09T08:00:59;96078.72;;;22.28;76.00
12624;BME280;6377;42.836;23.998;2023-07-09T08:03:27;96046.22;;;22.06;75.16
12624;BME280;6377;42.836;23.998;2023-07-09T08:05:54;96115.91;;;22.71;75.84
12624;BME280;6377;42.836;23.998;2023-07-09T08:08:21;96118.28;;;22.84;78.86
12624;BME280;6377;42.836;23.998;2023-07-09T08:10:51;96039.13;;;22.45;75.44
12624;BME280;6377;42.836;23.998;2023-07-09T08:13:18;96120.91;;;23.12;78.57
12624;BME280;6377;42.836;23.998;2023-07-09T08:15:46;96122.22;;;23.26;78.40
12624;BME280;6377;42.836;23.998;2023-07-09T08:18:13;96112.97;;;23.22;73.45
12624;BME280;6377;42.836;23.998;2023-07-09T08:20:43;96058.47;;;23.04;76.51
12624;BME280;6377;42.836;23.998;2023-07-09T08:23:11;96097.25;;;23.36;67.77
12624;BME280;6377;42.836;23.998;2023-07-09T08:25:38;96107.22;;;23.52;70.22
12624;BME280;6377;42.836;23.998;2023-07-09T08:28:07;96125.22;;;23.63;66.63
12624;BME280;6377;42.836;23.998;2023-07-09T08:30:35;96007.38;;;22.97;70.43
12624;BME280;6377;42.836;23.998;2023-07-09T08:33:02;96108.34;;;23.73;69.68
12624;BME280;6377;42.836;23.998;2023-07-09T08:35:30;96036.78;;;23.15;66.00
12624;BME280;6377;42.836;23.998;2023-07-09T08:37:57;96108.00;;;23.69;62.80
12624;BME280;6377;42.836;23.998;2023-07-09T08:40:25;96112.94;;;23.94;64.75
12624;BME280;6377;42.836;23.998;2023-07-09T08:42:55;96108.88;;;23.75;62.54
12624;BME280;6377;42.836;23.998;2023-07-09T08:45:35;96107.28;;;23.74;60.99
12624;BME280;6377;42.836;23.998;2023-07-09T08:48:10;96096.16;;;23.70;63.04
12624;BME280;6377;42.836;23.998;2023-07-09T08:50:43;96061.47;;;23.62;61.03
12624;BME280;6377;42.836;23.998;2023-07-09T08:53:18;96068.50;;;23.85;66.03
12624;BME280;6377;42.836;23.998;2023-07-09T08:55:47;96096.75;;;24.16;68.50
12624;BME280;6377;42.836;23.998;2023-07-09T08:58:21;96088.16;;;24.02;62.65
12624;BME280;6377;42.836;23.998;2023-07-09T09:00:54;96093.22;;;24.15;59.28
12624;BME280;6377;42.836;23.998;2023-07-09T09:03:29;96117.97;;;24.29;58.05
12624;BME280;6377;42.836;23.998;2023-07-09T09:06:00;96136.34;;;24.27;57.85
12624;BME280;6377;42.836;23.998;2023-07-09T09:08:36;96126.13;;;24.34;54.40
12624;BME280;6377;42.836;23.998;2023-07-09T09:11:12;96081.28;;;24.11;56.28
12624;BME280;6377;42.836;23.998;2023-07-09T09:13:42;96098.09;;;24.40;58.20
12624;BME280;6377;42.836;23.998;2023-07-09T09:16:24;96121.38;;;24.68;57.00
12624;BME280;6377;42.836;23.998;2023-07-09T09:18:55;96055.19;;;24.48;56.69
12624;BME280;6377;42.836;23.998;2023-07-09T09:21:27;96090.41;;;24.80;55.03
12624;BME280;6377;42.836;23.998;2023-07-09T09:23:57;96019.59;;;24.30;54.06
12624;BME280;6377;42.836;23.998;2023-07-09T09:26:31;96106.72;;;24.90;54.05
12624;BME280;6377;42.836;23.998;2023-07-09T09:28:59;96061.69;;;24.79;53.74
12624;BME280;6377;42.836;23.998;2023-07-09T09:31:29;96053.09;;;24.82;52.97
12624;BME280;6377;42.836;23.998;2023-07-09T09:33:57;96103.81;;;25.34;54.08
12624;BME280;6377;42.836;23.998;2023-07-09T09:36:25;96098.84;;;25.52;54.59
12624;BME280;6377;42.836;23.998;2023-07-09T09:38:53;96079.38;;;25.19;51.02
12624;BME280;6377;42.836;23.998;2023-07-09T09:41:23;96103.13;;;25.48;52.60
12624;BME280;6377;42.836;23.998;2023-07-09T09:43:52;96102.06;;;25.49;51.34
12624;BME280;6377;42.836;23.998;2023-07-09T09:46:22;96081.09;;;25.40;49.27
12624;BME280;6377;42.836;23.998;2023-07-09T09:48:54;96105.25;;;25.46;49.74
12624;BME280;6377;42.836;23.998;2023-07-09T09:51:23;96091.84;;;25.61;49.35
12624;BME280;6377;42.836;23.998;2023-07-09T09:53:52;96076.44;;;25.72;49.05
12624;BME280;6377;42.836;23.998;2023-07-09T09:56:27;96097.97;;;25.94;50.72
12624;BME280;6377;42.836;23.998;2023-07-09T09:58:56;96051.31;;;25.87;47.51
12624;BME280;6377;42.836;23.998;2023-07-09T10:01:27;96034.28;;;25.96;49.89
12624;BME280;6377;42.836;23.998;2023-07-09T10:03:58;96106.56;;;26.38;48.12
12624;BME280;6377;42.836;23.998;2023-07-09T10:06:34;96090.31;;;26.43;49.47
12624;BME280;6377;42.836;23.998;2023-07-09T10:09:11;96080.16;;;26.13;47.50
12624;BME280;6377;42.836;23.998;2023-07-09T10:11:47;96102.78;;;26.39;48.87
12624;BME280;6377;42.836;23.998;2023-07-09T10:14:32;96068.91;;;26.71;48.01
12624;BME280;6377;42.836;23.998;2023-07-09T10:17:05;96085.81;;;26.89;48.69
12624;BME280;6377;42.836;23.998;2023-07-09T10:19:46;96039.91;;;26.77;47.25
12624;BME280;6377;42.836;23.998;2023-07-09T10:22:24;96084.69;;;27.45;45.92
12624;BME280;6377;42.836;23.998;2023-07-09T10:25:01;96060.81;;;27.32;44.86
12624;BME280;6377;42.836;23.998;2023-07-09T10:27:35;96082.78;;;27.56;45.94
12624;BME280;6377;42.836;23.998;2023-07-09T10:30:19;96077.53;;;27.90;44.81
12624;BME280;6377;42.836;23.998;2023-07-09T10:33:05;96073.81;;;28.34;44.96
12624;BME280;6377;42.836;23.998;2023-07-09T10:35:40;96066.97;;;28.47;45.03
12624;BME280;6377;42.836;23.998;2023-07-09T10:38:23;96062.22;;;28.63;44.50
12624;BME280;6377;42.836;23.998;2023-07-09T10:40:55;96058.78;;;28.47;43.54
12624;BME280;6377;42.836;23.998;2023-07-09T10:43:31;96075.28;;;28.17;45.28
12624;BME280;6377;42.836;23.998;2023-07-09T10:46:04;95980.94;;;28.07;44.88
12624;BME280;6377;42.836;23.998;2023-07-09T10:48:36;96040.41;;;28.73;44.18
12624;BME280;6377;42.836;23.998;2023-07-09T10:51:15;96020.16;;;28.84;42.46
12624;BME280;6377;42.836;23.998;2023-07-09T10:53:46;96054.16;;;29.25;41.34
12624;BME280;6377;42.836;23.998;2023-07-09T10:56:17;96066.38;;;29.57;40.97
12624;BME280;6377;42.836;23.998;2023-07-09T10:58:50;96012.78;;;29.94;40.12
12624;BME280;6377;42.836;23.998;2023-07-09T11:01:25;96025.59;;;30.36;39.71
12624;BME280;6377;42.836;23.998;2023-07-09T11:03:59;96033.91;;;30.08;40.58
12624;BME280;6377;42.836;23.998;2023-07-09T11:06:33;96029.56;;;29.83;40.80
12624;BME280;6377;42.836;23.998;2023-07-09T11:09:02;96015.75;;;29.22;41.87
12624;BME280;6377;42.836;23.998;2023-07-09T11:11:36;96055.19;;;28.96;43.78
12624;BME280;6377;42.836;23.998;2023-07-09T11:14:10;96048.03;;;29.05;42.50
12624;BME280;6377;42.836;23.998;2023-07-09T11:16:40;96052.97;;;29.03;43.03
12624;BME280;6377;42.836;23.998;2023-07-09T11:19:13;96020.44;;;29.16;42.66
12624;BME280;6377;42.836;23.998;2023-07-09T11:21:58;96028.22;;;29.80;42.09
12624;BME280;6377;42.836;23.998;2023-07-09T11:24:34;96012.00;;;30.13;41.11
12624;BME280;6377;42.836;23.998;2023-07-09T11:27:03;96030.06;;;30.70;40.72
12624;BME280;6377;42.836;23.998;2023-07-09T11:29:46;96057.03;;;30.90;39.31
12624;BME280;6377;42.836;23.998;2023-07-09T11:32:18;96019.13;;;30.70;38.56
12624;BME280;6377;42.836;23.998;2023-07-09T11:34:46;96014.84;;;30.64;39.04
12624;BME280;6377;42.836;23.998;2023-07-09T11:37:16;96020.97;;;30.74;39.00
12624;BME280;6377;42.836;23.998;2023-07-09T11:39:45;96038.94;;;30.62;39.37
12624;BME280;6377;42.836;23.998;2023-07-09T11:42:28;96043.53;;;30.80;40.17
12624;BME280;6377;42.836;23.998;2023-07-09T11:45:04;95992.47;;;30.24;39.46
12624;BME280;6377;42.836;23.998;2023-07-09T11:47:37;96035.47;;;30.88;38.75
12624;BME280;6377;42.836;23.998;2023-07-09T11:50:19;96051.53;;;30.95;38.27
12624;BME280;6377;42.836;23.998;2023-07-09T11:52:52;96023.69;;;30.93;38.84
12624;BME280;6377;42.836;23.998;2023-07-09T11:55:26;96036.78;;;31.42;37.14
12624;BME280;6377;42.836;23.998;2023-07-09T11:57:55;96003.91;;;31.47;37.13
12624;BME280;6377;42.836;23.998;2023-07-09T12:00:23;96000.47;;;31.09;37.20
12624;BME280;6377;42.836;23.998;2023-07-09T12:02:50;96003.41;;;31.13;37.02
12624;BME280;6377;42.836;23.998;2023-07-09T12:05:20;96020.84;;;31.49;37.65
12624;BME280;6377;42.836;23.998;2023-07-09T12:07:50;95993.78;;;31.01;38.83
12624;BME280;6377;42.836;23.998;2023-07-09T12:10:22;96026.44;;;31.39;38.50
12624;BME280;6377;42.836;23.998;2023-07-09T12:12:54;96015.84;;;31.05;38.10
12624;BME280;6377;42.836;23.998;2023-07-09T12:15:23;95960.81;;;31.12;38.06
12624;BME280;6377;42.836;23.998;2023-07-09T12:17:58;96022.44;;;32.32;37.13
12624;BME280;6377;42.836;23.998;2023-07-09T12:20:29;96015.59;;;32.56;36.76
12624;BME280;6377;42.836;23.998;2023-07-09T12:22:59;95967.69;;;31.55;37.31
12624;BME280;6377;42.836;23.998;2023-07-09T12:25:29;95913.25;;;29.73;39.30
12624;BME280;6377;42.836;23.998;2023-07-09T12:27:58;95987.59;;;30.21;38.93
12624;BME280;6377;42.836;23.998;2023-07-09T12:30:27;95998.03;;;30.57;39.28
12624;BME280;6377;42.836;23.998;2023-07-09T12:32:54;95972.09;;;30.40;39.05
12624;BME280;6377;42.836;23.998;2023-07-09T12:35:21;95975.25;;;29.86;39.59
12624;BME280;6377;42.836;23.998;2023-07-09T12:37:51;95989.44;;;29.65;40.08
12624;BME280;6377;42.836;23.998;2023-07-09T12:40:28;95954.41;;;29.95;40.01
12624;BME280;6377;42.836;23.998;2023-07-09T12:42:56;95986.22;;;30.61;38.60
12624;BME280;6377;42.836;23.998;2023-07-09T12:45:24;95975.34;;;30.93;38.76
12624;BME280;6377;42.836;23.998;2023-07-09T12:47:52;95925.53;;;31.29;37.71
12624;BME280;6377;42.836;23.998;2023-07-09T12:50:27;95983.84;;;32.06;38.02
12624;BME280;6377;42.836;23.998;2023-07-09T12:53:00;95996.22;;;32.03;37.32
12624;BME280;6377;42.836;23.998;2023-07-09T12:55:36;95999.56;;;31.59;37.67
12624;BME280;6377;42.836;23.998;2023-07-09T12:58:09;95991.00;;;32.43;35.56
12624;BME280;6377;42.836;23.998;2023-07-09T13:00:37;95965.09;;;33.07;35.45
12624;BME280;6377;42.836;23.998;2023-07-09T13:03:13;95989.09;;;33.63;35.00
12624;BME280;6377;42.836;23.998;2023-07-09T13:05:51;95977.34;;;34.19;33.25
12624;BME280;6377;42.836;23.998;2023-07-09T13:08:19;95949.00;;;33.93;34.61
12624;BME280;6377;42.836;23.998;2023-07-09T13:10:47;95989.97;;;33.50;34.77
12624;BME280;6377;42.836;23.998;2023-07-09T13:13:19;95905.47;;;32.90;35.08
12624;BME280;6377;42.836;23.998;2023-07-09T13:15:49;95875.38;;;32.99;34.31
12624;BME280;6377;42.836;23.998;2023-07-09T13:18:16;95960.28;;;33.12;34.56
12624;BME280;6377;42.836;23.998;2023-07-09T13:20:45;95990.22;;;33.31;34.85
12624;BME280;6377;42.836;23.998;2023-07-09T13:23:16;95981.00;;;33.58;34.07
12624;BME280;6377;42.836;23.998;2023-07-09T13:25:44;95983.13;;;34.09;33.93
12624;BME280;6377;42.836;23.998;2023-07-09T13:28:21;95965.97;;;34.03;33.53
12624;BME280;6377;42.836;23.998;2023-07-09T13:30:50;95986.38;;;33.71;34.25
12624;BME280;6377;42.836;23.998;2023-07-09T13:33:19;95965.13;;;33.46;34.83
12624;BME280;6377;42.836;23.998;2023-07-09T13:35:47;95987.09;;;33.94;34.16
12624;BME280;6377;42.836;23.998;2023-07-09T13:38:15;95937.84;;;33.80;33.43
12624;BME280;6377;42.836;23.998;2023-07-09T13:40:43;95954.84;;;33.21;33.53
12624;BME280;6377;42.836;23.998;2023-07-09T13:43:12;95975.66;;;31.65;36.64
12624;BME280;6377;42.836;23.998;2023-07-09T13:45:41;95935.25;;;31.62;36.37
12624;BME280;6377;42.836;23.998;2023-07-09T13:48:14;95984.50;;;31.76;36.72
12624;BME280;6377;42.836;23.998;2023-07-09T13:50:42;95912.88;;;31.46;37.19
12624;BME280;6377;42.836;23.998;2023-07-09T13:53:19;95908.88;;;31.80;36.81
12624;BME280;6377;42.836;23.998;2023-07-09T13:55:47;95983.53;;;32.21;36.18
12624;BME280;6377;42.836;23.998;2023-07-09T13:58:17;95946.63;;;32.54;36.53
12624;BME280;6377;42.836;23.998;2023-07-09T14:00:48;95959.75;;;32.88;35.89
12624;BME280;6377;42.836;23.998;2023-07-09T14:03:20;95991.88;;;33.41;34.54
12624;BME280;6377;42.836;23.998;2023-07-09T14:05:48;95911.94;;;32.28;34.99
12624;BME280;6377;42.836;23.998;2023-07-09T14:08:16;95932.22;;;32.27;34.67
12624;BME280;6377;42.836;23.998;2023-07-09T14:10:45;95967.88;;;32.35;34.73
12624;BME280;6377;42.836;23.998;2023-07-09T14:13:14;95952.94;;;32.19;34.70
12624;BME280;6377;42.836;23.998;2023-07-09T14:15:42;95970.59;;;32.49;35.24
12624;BME280;6377;42.836;23.998;2023-07-09T14:18:14;96001.13;;;33.00;34.32
12624;BME280;6377;42.836;23.998;2023-07-09T14:20:42;96007.22;;;32.97;35.11
12624;BME280;6377;42.836;23.998;2023-07-09T14:23:10;95996.41;;;32.70;34.35
12624;BME280;6377;42.836;23.998;2023-07-09T14:25:39;96002.31;;;32.50;34.79
12624;BME280;6377;42.836;23.998;2023-07-09T14:28:11;96000.88;;;31.89;35.03
12624;BME280;6377;42.836;23.998;2023-07-09T14:30:39;95994.50;;;31.07;36.13
12624;BME280;6377;42.836;23.998;2023-07-09T14:33:13;96011.63;;;31.13;36.16
12624;BME280;6377;42.836;23.998;2023-07-09T14:35:41;95999.75;;;30.52;36.93
12624;BME280;6377;42.836;23.998;2023-07-09T14:38:15;95997.44;;;30.97;36.64
12624;BME280;6377;42.836;23.998;2023-07-09T14:40:44;95935.31;;;30.51;37.25
12624;BME280;6377;42.836;23.998;2023-07-09T14:43:12;96002.88;;;31.29;36.17
12624;BME280;6377;42.836;23.998;2023-07-09T14:45:39;96003.16;;;30.95;36.02
12624;BME280;6377;42.836;23.998;2023-07-09T14:48:11;95895.78;;;30.49;35.56
12624;BME280;6377;42.836;23.998;2023-07-09T14:50:40;95869.03;;;30.97;35.59
12624;BME280;6377;42.836;23.998;2023-07-09T14:53:13;95991.28;;;31.78;33.96
12624;BME280;6377;42.836;23.998;2023-07-09T14:55:42;95985.97;;;31.95;33.51
12624;BME280;6377;42.836;23.998;2023-07-09T14:58:17;95966.66;;;31.78;33.57
12624;BME280;6377;42.836;23.998;2023-07-09T15:00:45;96000.75;;;31.94;32.84
12624;BME280;6377;42.836;23.998;2023-07-09T15:03:18;96000.13;;;31.43;34.30
12624;BME280;6377;42.836;23.998;2023-07-09T15:05:47;95968.75;;;31.68;33.42
12624;BME280;6377;42.836;23.998;2023-07-09T15:08:17;95940.53;;;31.72;33.68
12624;BME280;6377;42.836;23.998;2023-07-09T15:10:45;95960.78;;;31.85;33.16
12624;BME280;6377;42.836;23.998;2023-07-09T15:13:17;96008.75;;;31.50;32.80
12624;BME280;6377;42.836;23.998;2023-07-09T15:15:45;95985.09;;;30.25;33.76
12624;BME280;6377;42.836;23.998;2023-07-09T15:18:14;95986.00;;;30.58;32.99
12624;BME280;6377;42.836;23.998;2023-07-09T15:20:47;95980.81;;;30.75;33.39
12624;BME280;6377;42.836;23.998;2023-07-09T15:23:15;95961.81;;;30.83;32.69
12624;BME280;6377;42.836;23.998;2023-07-09T15:25:43;95968.09;;;31.02;33.33
12624;BME280;6377;42.836;23.998;2023-07-09T15:28:11;95943.63;;;31.11;33.02
12624;BME280;6377;42.836;23.998;2023-07-09T15:30:38;95949.69;;;31.22;32.29
12624;BME280;6377;42.836;23.998;2023-07-09T15:33:09;95983.91;;;31.19;32.11
12624;BME280;6377;42.836;23.998;2023-07-09T15:35:39;95933.09;;;30.86;32.53
12624;BME280;6377;42.836;23.998;2023-07-09T15:38:27;96012.16;;;31.15;32.83
12624;BME280;6377;42.836;23.998;2023-07-09T15:40:55;96009.22;;;31.25;32.76
12624;BME280;6377;42.836;23.998;2023-07-09T15:43:24;95970.53;;;31.18;33.50
12624;BME280;6377;42.836;23.998;2023-07-09T15:45:54;96001.91;;;31.66;33.00
12624;BME280;6377;42.836;23.998;2023-07-09T15:48:26;96015.16;;;31.86;32.83
12624;BME280;6377;42.836;23.998;2023-07-09T15:50:54;95954.72;;;31.60;32.39
12624;BME280;6377;42.836;23.998;2023-07-09T15:53:23;95992.38;;;31.77;32.62
12624;BME280;6377;42.836;23.998;2023-07-09T15:55:54;95992.25;;;31.82;32.57
12624;BME280;6377;42.836;23.998;2023-07-09T15:58:26;95995.41;;;32.03;32.63
12624;BME280;6377;42.836;23.998;2023-07-09T16:00:54;96017.47;;;32.34;32.92
12624;BME280;6377;42.836;23.998;2023-07-09T16:03:22;95981.88;;;32.34;33.48
12624;BME280;6377;42.836;23.998;2023-07-09T16:05:49;95958.22;;;31.88;32.66
12624;BME280;6377;42.836;23.998;2023-07-09T16:08:17;96031.44;;;32.32;34.20
12624;BME280;6377;42.836;23.998;2023-07-09T16:10:46;95997.75;;;31.96;33.85
12624;BME280;6377;42.836;23.998;2023-07-09T16:13:18;96017.78;;;31.91;32.58
12624;BME280;6377;42.836;23.998;2023-07-09T16:15:46;95962.22;;;31.55;33.07
12624;BME280;6377;42.836;23.998;2023-07-09T16:18:13;96009.59;;;31.50;33.11
12624;BME280;6377;42.836;23.998;2023-07-09T16:20:42;95982.94;;;31.56;34.05
12624;BME280;6377;42.836;23.998;2023-07-09T16:23:15;95987.03;;;31.58;34.89
12624;BME280;6377;42.836;23.998;2023-07-09T16:25:43;95985.78;;;31.78;35.90
12624;BME280;6377;42.836;23.998;2023-07-09T16:28:14;96028.31;;;31.71;36.11
12624;BME280;6377;42.836;23.998;2023-07-09T16:30:41;95976.75;;;31.37;35.89
12624;BME280;6377;42.836;23.998;2023-07-09T16:33:08;96004.66;;;31.20;35.89
12624;BME280;6377;42.836;23.998;2023-07-09T16:35:36;96025.00;;;31.28;36.21
12624;BME280;6377;42.836;23.998;2023-07-09T16:38:03;95999.94;;;30.75;37.28
12624;BME280;6377;42.836;23.998;2023-07-09T16:40:32;96000.53;;;30.53;36.82
12624;BME280;6377;42.836;23.998;2023-07-09T16:43:01;96007.03;;;30.38;38.43
12624;BME280;6377;42.836;23.998;2023-07-09T16:45:29;96030.28;;;30.54;38.64
12624;BME280;6377;42.836;23.998;2023-07-09T16:47:57;95987.88;;;29.77;39.22
12624;BME280;6377;42.836;23.998;2023-07-09T16:50:25;95984.66;;;29.75;39.71
12624;BME280;6377;42.836;23.998;2023-07-09T16:52:54;96000.94;;;29.57;40.13
12624;BME280;6377;42.836;23.998;2023-07-09T16:55:23;96015.84;;;29.40;40.71
12624;BME280;6377;42.836;23.998;2023-07-09T16:57:53;96038.31;;;29.27;41.46
12624;BME280;6377;42.836;23.998;2023-07-09T17:00:26;96008.50;;;28.78;42.44
12624;BME280;6377;42.836;23.998;2023-07-09T17:02:57;95990.47;;;28.05;43.73
12624;BME280;6377;42.836;23.998;2023-07-09T17:05:26;95989.28;;;27.67;44.76
12624;BME280;6377;42.836;23.998;2023-07-09T17:07:54;95899.56;;;26.78;44.85
12624;BME280;6377;42.836;23.998;2023-07-09T17:10:24;95935.16;;;26.71;45.22
12624;BME280;6377;42.836;23.998;2023-07-09T17:12:55;95893.94;;;26.24;46.12
12624;BME280;6377;42.836;23.998;2023-07-09T17:15:24;95945.72;;;26.42;46.89
12624;BME280;6377;42.836;23.998;2023-07-09T17:17:54;95939.78;;;26.30;47.66
12624;BME280;6377;42.836;23.998;2023-07-09T17:20:23;96045.59;;;26.70;48.55
12624;BME280;6377;42.836;23.998;2023-07-09T17:22:53;95968.88;;;25.73;50.75
12624;BME280;6377;42.836;23.998;2023-07-09T17:25:27;95954.75;;;25.60;51.63
12624;BME280;6377;42.836;23.998;2023-07-09T17:27:57;95968.31;;;25.60;52.31
12624;BME280;6377;42.836;23.998;2023-07-09T17:30:26;95895.34;;;24.82;54.99
12624;BME280;6377;42.836;23.998;2023-07-09T17:32:59;96015.38;;;25.49;54.95
12624;BME280;6377;42.836;23.998;2023-07-09T17:35:26;96023.16;;;25.36;54.63
12624;BME280;6377;42.836;23.998;2023-07-09T17:37:55;96053.31;;;25.49;56.90
12624;BME280;6377;42.836;23.998;2023-07-09T17:40:25;95969.78;;;24.89;57.93
12624;BME280;6377;42.836;23.998;2023-07-09T17:42:53;96057.16;;;25.22;61.48
12624;BME280;6377;42.836;23.998;2023-07-09T17:45:23;95990.59;;;24.52;62.07
12624;BME280;6377;42.836;23.998;2023-07-09T17:47:51;95957.66;;;24.28;61.91
12624;BME280;6377;42.836;23.998;2023-07-09T17:50:27;95975.50;;;24.03;61.18
12624;BME280;6377;42.836;23.998;2023-07-09T17:52:55;96010.66;;;24.08;62.60
12624;BME280;6377;42.836;23.998;2023-07-09T17:55:23;95913.41;;;23.32;63.94
12624;BME280;6377;42.836;23.998;2023-07-09T17:57:52;95947.13;;;23.13;66.29
12624;BME280;6377;42.836;23.998;2023-07-09T18:00:24;96014.09;;;23.16;69.81
12624;BME280;6377;42.836;23.998;2023-07-09T18:02:55;96006.13;;;23.05;78.00
12624;BME280;6377;42.836;23.998;2023-07-09T18:05:28;96059.56;;;23.41;78.67
12624;BME280;6377;42.836;23.998;2023-07-09T18:08:18;96054.47;;;23.28;74.84
12624;BME280;6377;42.836;23.998;2023-07-09T18:10:45;96011.38;;;22.78;80.21
12624;BME280;6377;42.836;23.998;2023-07-09T18:13:15;96047.25;;;22.78;78.38
12624;BME280;6377;42.836;23.998;2023-07-09T18:15:45;95897.72;;;21.58;87.91
12624;BME280;6377;42.836;23.998;2023-07-09T18:18:13;96033.97;;;22.27;86.26
12624;BME280;6377;42.836;23.998;2023-07-09T18:20:45;96044.09;;;22.08;91.30
12624;BME280;6377;42.836;23.998;2023-07-09T18:23:16;95990.06;;;21.58;92.07
12624;BME280;6377;42.836;23.998;2023-07-09T18:25:45;96017.66;;;21.65;93.38
12624;BME280;6377;42.836;23.998;2023-07-09T18:28:24;96070.19;;;21.91;94.76
12624;BME280;6377;42.836;23.998;2023-07-09T18:30:54;96082.59;;;21.92;94.65
12624;BME280;6377;42.836;23.998;2023-07-09T18:33:22;96070.00;;;21.58;96.76
12624;BME280;6377;42.836;23.998;2023-07-09T18:35:56;95989.00;;;20.85;95.05
12624;BME280;6377;42.836;23.998;2023-07-09T18:38:30;96057.41;;;21.12;98.05
12624;BME280;6377;42.836;23.998;2023-07-09T18:41:12;96029.31;;;20.61;100.00
12624;BME280;6377;42.836;23.998;2023-07-09T18:43:40;95986.13;;;20.22;100.00
12624;BME280;6377;42.836;23.998;2023-07-09T18:46:08;96068.00;;;20.60;100.00
12624;BME280;6377;42.836;23.998;2023-07-09T18:48:37;96060.09;;;20.36;100.00